Big Bear Station Historical Data
Daily Summary for March 2, 2017 Units:  English    Metric   Both
« Previous Day
Next Day »
Daily Weekly Monthly Yearly Custom
  High: Low: Average:
Temperature: 52.0 °F 21.0 °F 34.1 °F
Dew Point: 18.8 °F 9.6 °F 13.9 °F
Humidity: 75 % 21 % 47 %
Wind Speed: 5.3 mph 0.0 mph 1.2 mph
Wind Gust: -999.0 mph - -
Wind:- - SW
Pressure: 30.32 in 30.24 in -
Precipitation: 0.00 in    
Historical Graphs
 
 
Tabular Data for March 2, 2017
Time Temperature Dew Point Pressure Wind Wind Speed Wind Gust Humidity Rainfall Rate (Hourly)
00:09 24.3 °F 12.8 °F 30.31 in Calm   -999.0 mph 61 % 0 in
00:24 24.6 °F 12.3 °F 30.31 in Calm   -999.0 mph 59 % 0 in
00:40 23.9 °F 12.0 °F 30.31 in Calm   -999.0 mph 60 % 0 in
00:55 24.3 °F 10.8 °F 30.31 in Calm   -999.0 mph 56 % 0 in
01:10 24.1 °F 11.1 °F 30.31 in Calm   -999.0 mph 57 % 0 in
01:25 24.1 °F 12.6 °F 30.31 in Calm   -999.0 mph 61 % 0 in
01:40 24.3 °F 11.2 °F 30.31 in Calm   -999.0 mph 57 % 0 in
01:56 23.9 °F 10.9 °F 30.30 in Calm   -999.0 mph 57 % 0 in
02:11 23.9 °F 12.4 °F 30.30 in South 1.7 mph -999.0 mph 61 % 0 in
02:26 23.4 °F 12.7 °F 30.30 in Calm   -999.0 mph 63 % 0 in
02:41 23.9 °F 13.5 °F 30.29 in Calm   -999.0 mph 64 % 0 in
02:56 23.5 °F 11.6 °F 30.29 in Calm   -999.0 mph 60 % 0 in
03:12 24.1 °F 11.8 °F 30.29 in South 2.2 mph -999.0 mph 59 % 0 in
03:27 23.9 °F 10.9 °F 30.28 in South 2.2 mph -999.0 mph 57 % 0 in
03:42 23.5 °F 10.5 °F 30.28 in Calm   -999.0 mph 57 % 0 in
03:57 23.2 °F 12.1 °F 30.28 in Calm   -999.0 mph 62 % 0 in
04:13 23.7 °F 12.6 °F 30.28 in Calm   -999.0 mph 62 % 0 in
04:28 23.2 °F 12.8 °F 30.28 in Calm   -999.0 mph 64 % 0 in
04:43 22.8 °F 12.1 °F 30.29 in Calm   -999.0 mph 63 % 0 in
04:58 22.3 °F 10.9 °F 30.29 in Calm   -999.0 mph 61 % 0 in
05:13 22.8 °F 11.4 °F 30.29 in Calm   -999.0 mph 61 % 0 in
05:29 21.7 °F 12.8 °F 30.29 in Calm   -999.0 mph 68 % 0 in
05:44 21.6 °F 14.6 °F 30.29 in Calm   -999.0 mph 74 % 0 in
05:59 21.2 °F 14.5 °F 30.29 in Calm   -999.0 mph 75 % 0 in
06:14 21.4 °F 14.4 °F 30.29 in Calm   -999.0 mph 74 % 0 in
06:29 21.0 °F 14.0 °F 30.30 in Calm   -999.0 mph 74 % 0 in
06:45 21.0 °F 12.7 °F 30.30 in Calm   -999.0 mph 70 % 0 in
07:00 21.4 °F 13.1 °F 30.31 in Calm   -999.0 mph 70 % 0 in
07:15 22.3 °F 13.7 °F 30.31 in South 1.1 mph -999.0 mph 69 % 0 in
07:30 22.6 °F 12.9 °F 30.31 in South 2.2 mph -999.0 mph 66 % 0 in
07:45 24.6 °F 12.7 °F 30.32 in Calm   -999.0 mph 60 % 0 in
08:01 25.5 °F 12.8 °F 30.32 in Calm   -999.0 mph 58 % 0 in
08:16 26.8 °F 14.0 °F 30.32 in Calm   -999.0 mph 58 % 0 in
08:31 29.8 °F 13.0 °F 30.32 in WNW 1.7 mph -999.0 mph 49 % 0 in
08:46 32.7 °F 12.6 °F 30.31 in Calm   -999.0 mph 43 % 0 in
09:01 35.1 °F 13.7 °F 30.31 in ESE 1.7 mph -999.0 mph 41 % 0 in
09:17 37.8 °F 15.0 °F 30.32 in West 2.2 mph -999.0 mph 39 % 0 in
09:32 39.9 °F 12.4 °F 30.32 in ESE 3.2 mph -999.0 mph 32 % 0 in
09:48 42.3 °F 13.0 °F 30.32 in NW 1.7 mph -999.0 mph 30 % 0 in
10:03 45.3 °F 14.1 °F 30.32 in NW 2.7 mph -999.0 mph 28 % 0 in
10:18 46.6 °F 12.6 °F 30.32 in NW 3.2 mph -999.0 mph 25 % 0 in
10:33 47.1 °F 12.1 °F 30.32 in NW 2.2 mph -999.0 mph 24 % 0 in
10:49 48.4 °F 13.2 °F 30.32 in NW 2.7 mph -999.0 mph 24 % 0 in
11:04 48.9 °F 12.7 °F 30.32 in NNW 2.7 mph -999.0 mph 23 % 0 in
11:19 49.5 °F 11.1 °F 30.31 in NE 1.1 mph -999.0 mph 21 % 0 in
11:34 49.8 °F 11.4 °F 30.31 in SSE 2.7 mph -999.0 mph 21 % 0 in
11:49 50.2 °F 13.8 °F 30.31 in NW 5.3 mph -999.0 mph 23 % 0 in
12:05 50.5 °F 15.0 °F 30.31 in East 2.7 mph -999.0 mph 24 % 0 in
12:20 51.1 °F 13.5 °F 30.29 in North 2.7 mph -999.0 mph 22 % 0 in
12:35 50.9 °F 15.4 °F 30.29 in NW 2.7 mph -999.0 mph 24 % 0 in
12:51 51.1 °F 14.5 °F 30.28 in NW 3.2 mph -999.0 mph 23 % 0 in
13:06 50.2 °F 14.8 °F 30.28 in NNW 3.7 mph -999.0 mph 24 % 0 in
13:21 50.0 °F 14.6 °F 30.27 in WSW 1.1 mph -999.0 mph 24 % 0 in
13:36 52.0 °F 15.3 °F 30.27 in WNW 2.2 mph -999.0 mph 23 % 0 in
13:52 49.6 °F 15.2 °F 30.27 in West 2.7 mph -999.0 mph 25 % 0 in
14:07 49.6 °F 16.1 °F 30.26 in Calm   -999.0 mph 26 % 0 in
14:22 50.9 °F 15.4 °F 30.26 in WNW 2.2 mph -999.0 mph 24 % 0 in
14:38 50.7 °F 14.2 °F 30.26 in NW 4.2 mph -999.0 mph 23 % 0 in
14:53 50.9 °F 16.3 °F 30.26 in NW 2.7 mph -999.0 mph 25 % 0 in
15:08 50.0 °F 18.1 °F 30.26 in WNW 1.1 mph -999.0 mph 28 % 0 in
15:24 49.6 °F 17.0 °F 30.25 in East 1.7 mph -999.0 mph 27 % 0 in
15:40 48.7 °F 18.6 °F 30.25 in West 2.7 mph -999.0 mph 30 % 0 in
15:55 48.0 °F 16.4 °F 30.25 in Calm   -999.0 mph 28 % 0 in
16:11 48.2 °F 16.6 °F 30.24 in WNW 2.2 mph -999.0 mph 28 % 0 in
16:26 47.8 °F 17.1 °F 30.24 in NW 2.2 mph -999.0 mph 29 % 0 in
16:41 47.1 °F 14.8 °F 30.24 in Calm   -999.0 mph 27 % 0 in
16:56 45.5 °F 15.1 °F 30.24 in Calm   -999.0 mph 29 % 0 in
17:12 43.3 °F 17.5 °F 30.24 in ENE 1.7 mph -999.0 mph 35 % 0 in
17:27 41.7 °F 16.0 °F 30.24 in Calm   -999.0 mph 35 % 0 in
17:43 39.7 °F 15.5 °F 30.25 in South 2.2 mph -999.0 mph 37 % 0 in
17:58 38.5 °F 16.2 °F 30.25 in SSE 1.1 mph -999.0 mph 40 % 0 in
18:13 37.2 °F 14.5 °F 30.25 in Calm   -999.0 mph 39 % 0 in
18:28 36.0 °F 15.1 °F 30.25 in Calm   -999.0 mph 42 % 0 in
18:43 35.1 °F 15.9 °F 30.25 in Calm   -999.0 mph 45 % 0 in
18:59 34.2 °F 18.8 °F 30.25 in SSE 2.2 mph -999.0 mph 53 % 0 in
19:14 33.3 °F 17.1 °F 30.26 in SSE 1.7 mph -999.0 mph 51 % 0 in
19:29 32.2 °F 17.8 °F 30.26 in South 1.7 mph -999.0 mph 55 % 0 in
19:44 31.5 °F 17.6 °F 30.26 in SSW 1.7 mph -999.0 mph 56 % 0 in
19:59 31.1 °F 17.6 °F 30.26 in South 2.2 mph -999.0 mph 57 % 0 in
20:15 30.4 °F 15.3 °F 30.26 in South 1.7 mph -999.0 mph 53 % 0 in
20:30 29.7 °F 14.2 °F 30.26 in South 2.2 mph -999.0 mph 52 % 0 in
20:45 29.3 °F 14.3 °F 30.26 in South 2.2 mph -999.0 mph 53 % 0 in
21:00 29.3 °F 13.4 °F 30.26 in South 1.7 mph -999.0 mph 51 % 0 in
21:16 28.6 °F 11.8 °F 30.27 in South 2.2 mph -999.0 mph 49 % 0 in
21:31 27.5 °F 11.3 °F 30.27 in SSE 2.2 mph -999.0 mph 50 % 0 in
21:46 27.1 °F 13.5 °F 30.27 in SSE 1.7 mph -999.0 mph 56 % 0 in
22:01 27.1 °F 13.5 °F 30.27 in South 1.7 mph -999.0 mph 56 % 0 in
22:17 26.2 °F 9.6 °F 30.26 in SSE 2.2 mph -999.0 mph 49 % 0 in
22:32 26.1 °F 12.9 °F 30.26 in Calm   -999.0 mph 57 % 0 in
22:47 25.9 °F 12.3 °F 30.26 in Calm   -999.0 mph 56 % 0 in
23:03 25.3 °F 11.4 °F 30.26 in Calm   -999.0 mph 55 % 0 in
23:18 25.0 °F 11.1 °F 30.26 in Calm   -999.0 mph 55 % 0 in
23:33 25.0 °F 14.5 °F 30.25 in Calm   -999.0 mph 64 % 0 in
23:48 24.8 °F 17.7 °F 30.25 in Calm   -999.0 mph 74 % 0 in
Big Bear CA Weather
Compliments of Weather Underground - 1.5 mb